Hauptseite
METAR-TAF:

METAR-TAF

Flughäfen :

Yap, Mikronesien

Breite: 09-29N, Länge: 138-05E, Höhe: 28 m

Beobachtung

Neuester Wetterbericht von vor 1 Stunde und 2 Minuten, um 08:51 UTC
Wind 5 kt aus unterschiedlichen Richtungen
Temperatur 28°C
Luftfeuchtigkeit 74%
Luftdruck 1009 hPa
Sichtweite: 19.3 km
Leicht bewölkt in der Höhe von 1600 ft
Durchbrochene Bewölkung in der Höhe von 30000 ft

METAR: PTYA 210851Z VRB05KT 12SM FEW016 BKN300 28/23 A2979 RMK SLP088 8/101 T02810232 53002

Zeit: 19:53 (09:53 UTC)

Prognose

Neuester Wetterbericht von vor 4 Stunden und 21 Minuten, um 05:32 UTC
Gültige Prognose vom 21 um 06 UTC bis 22 um 06 UTC
Wind 10 kt aus Ost/Nordost
Sichtweite: 10 km
Leicht bewölkt in der Höhe von 1400 ft
Leicht bewölkt in der Höhe von 4000 ft

TAF: PTYA 210532Z 2106/2206 06010KT P6SM FEW014 FEW040

Wetterbeobachtungen und Prognosen von mehr als 4000 Flughäfen (METAR und TAF Bericht).

Die verfügbaren Stationen werden durch gelbe und rote Markierungen auf der Karte dargestellt.

Führen Sie die Maus auf sie, um den Namen der Station zu sehen.

Darauf klicken, um die Beobachtung von Wetterbeobachtungen und Prognosen zu sehen.

Um die Karte zu ändern : klicken Sie auf den grünen Tasten mit einem schwarzen Kreuz Zum Vergrößern, auf den grünen Button mit einem Gedankenstrich zu verkleinern, oder auf die grünen Pfeile für benachbarte Karten.


METAR-TAF: